Time;durP1;ratioP1;P1;durP2;ratioP2;P2;SDS_P1;SDS_P2;PMS_P1;PMS_P2;Temp;Humidity;BMP_temperature;BMP_pressure;BME280_temperature;BME280_humidity;BME280_pressure;Samples;Min_cycle;Max_cycle;Signal;HPM_P1;HPM_P2
2022/03/30 00:00:29;;;;;;;38.80;14.13;;;10.30;80.40;;;;;;5121647;27;20096;-83
2022/03/30 00:02:54;;;;;;;29.25;12.90;;;10.30;80.00;;;;;;5107150;27;20031;-82
2022/03/30 00:05:20;;;;;;;29.98;14.80;;;10.20;79.90;;;;;;5092532;27;20041;-83
2022/03/30 00:07:55;;;;;;;27.17;14.45;;;10.20;79.70;;;;;;5119449;27;20023;-83
2022/03/30 00:10:21;;;;;;;24.48;12.70;;;10.20;79.90;;;;;;5095835;28;20032;-82
2022/03/30 00:12:48;;;;;;;28.70;13.50;;;10.20;80.30;;;;;;5084455;28;20030;-83
2022/03/30 00:15:15;;;;;;;25.13;13.40;;;10.10;80.60;;;;;;5084995;28;20047;-84
2022/03/30 00:17:43;;;;;;;28.63;13.85;;;10.10;80.60;;;;;;5119680;27;20035;-84
2022/03/30 00:20:10;;;;;;;28.00;13.13;;;10.10;80.70;;;;;;5084955;28;20032;-83
2022/03/30 00:22:38;;;;;;;31.25;13.82;;;10.10;81.00;;;;;;5104420;27;20056;-83
2022/03/30 00:25:05;;;;;;;29.10;13.85;;;10.10;81.10;;;;;;5099217;27;20024;-82
2022/03/30 00:27:31;;;;;;;27.40;13.57;;;10.00;81.10;;;;;;5081145;27;20024;-82
2022/03/30 00:29:56;;;;;;;31.33;13.77;;;10.00;81.20;;;;;;5071064;27;20490;-83
2022/03/30 00:32:23;;;;;;;29.58;13.90;;;10.00;81.20;;;;;;5068006;28;20115;-84
2022/03/30 00:34:49;;;;;;;27.15;14.15;;;10.00;81.10;;;;;;5068731;28;20527;-83
2022/03/30 00:37:14;;;;;;;29.48;13.55;;;9.90;81.10;;;;;;5096484;27;20110;-84
2022/03/30 00:39:40;;;;;;;26.20;12.85;;;10.00;81.40;;;;;;5084413;28;20049;-82
2022/03/30 00:42:17;;;;;;;28.42;12.55;;;9.90;81.50;;;;;;5085251;27;20064;-83
2022/03/30 00:44:43;;;;;;;25.13;12.60;;;9.90;81.70;;;;;;5123153;27;20487;-82
2022/03/30 00:47:20;;;;;;;26.17;13.07;;;9.90;81.60;;;;;;5091147;27;20582;-82
2022/03/30 00:49:45;;;;;;;25.17;12.63;;;9.80;81.60;;;;;;5131734;27;20051;-83
2022/03/30 00:52:12;;;;;;;25.05;13.82;;;9.80;81.60;;;;;;5097513;28;20082;-82
2022/03/30 00:54:40;;;;;;;28.35;13.35;;;9.70;81.40;;;;;;5099825;27;20056;-83
2022/03/30 00:57:09;;;;;;;25.70;12.82;;;9.80;81.80;;;;;;5116085;27;20372;-82
2022/03/30 00:59:35;;;;;;;30.85;13.80;;;9.70;82.10;;;;;;5103897;27;20796;-82
2022/03/30 01:02:01;;;;;;;33.60;12.25;;;9.70;82.20;;;;;;5087644;28;20043;-83
2022/03/30 01:04:27;;;;;;;26.83;12.55;;;9.60;82.50;;;;;;5119182;27;20023;-83
2022/03/30 01:06:53;;;;;;;24.02;12.65;;;9.60;82.50;;;;;;5101378;27;20464;-80
2022/03/30 01:09:19;;;;;;;24.77;12.85;;;9.60;82.30;;;;;;5088741;27;20032;-82
2022/03/30 01:11:46;;;;;;;25.80;13.32;;;9.60;82.30;;;;;;5100032;28;20027;-82
2022/03/30 01:14:12;;;;;;;27.20;13.02;;;9.60;82.80;;;;;;5063467;28;20023;-82
2022/03/30 01:16:40;;;;;;;27.38;12.85;;;9.50;82.50;;;;;;5100055;28;20106;-81
2022/03/30 01:19:08;;;;;;;30.65;12.82;;;9.50;82.80;;;;;;5101431;27;20023;-82
2022/03/30 01:21:39;;;;;;;27.08;12.45;;;9.40;83.50;;;;;;5064415;27;20032;-82
2022/03/30 01:24:06;;;;;;;24.92;13.35;;;9.40;83.00;;;;;;5121966;27;20046;-82
2022/03/30 01:26:34;;;;;;;29.90;12.02;;;9.40;83.10;;;;;;5087895;27;20031;-86
2022/03/30 01:29:00;;;;;;;29.45;13.30;;;9.40;83.30;;;;;;5099818;28;20084;-83
2022/03/30 01:34:11;;;;;;;24.65;12.48;;;9.30;83.80;;;;;;5107273;27;20093;-82
2022/03/30 01:36:37;;;;;;;28.48;12.35;;;9.30;83.70;;;;;;5090964;27;20031;-82
2022/03/30 01:39:04;;;;;;;30.83;11.85;;;9.20;84.00;;;;;;5096365;28;20044;-83
2022/03/30 01:41:30;;;;;;;28.33;12.45;;;9.20;84.10;;;;;;5099801;28;20024;-83
2022/03/30 01:43:57;;;;;;;27.67;13.13;;;9.20;84.00;;;;;;5083123;27;20051;-82
2022/03/30 01:46:23;;;;;;;28.25;12.35;;;9.20;83.80;;;;;;5101138;28;20106;-83
2022/03/30 01:48:50;;;;;;;29.75;12.40;;;9.10;83.80;;;;;;5122888;27;20019;-82
2022/03/30 01:51:15;;;;;;;26.45;11.63;;;9.10;84.20;;;;;;5111201;27;20495;-82
2022/03/30 01:53:42;;;;;;;27.60;12.48;;;9.10;84.40;;;;;;5095923;27;20027;-82
2022/03/30 01:56:07;;;;;;;27.23;12.43;;;9.10;84.50;;;;;;5099748;27;20031;-82
2022/03/30 01:58:33;;;;;;;28.65;11.65;;;9.10;84.60;;;;;;5061385;28;20023;-83
2022/03/30 02:01:00;;;;;;;23.08;11.00;;;9.10;84.60;;;;;;5105451;28;20153;-82
2022/03/30 02:03:27;;;;;;;26.30;12.23;;;9.00;84.80;;;;;;5086292;28;20476;-83
2022/03/30 02:05:54;;;;;;;23.65;12.43;;;9.00;85.00;;;;;;5095423;27;20109;-82
2022/03/30 02:08:20;;;;;;;23.38;11.98;;;9.00;85.10;;;;;;5095946;27;20422;-83
2022/03/30 02:10:46;;;;;;;22.50;11.00;;;9.00;85.20;;;;;;5112046;27;20098;-83
2022/03/30 02:13:13;;;;;;;31.20;12.73;;;8.90;85.20;;;;;;5093470;28;20119;-83
2022/03/30 02:15:38;;;;;;;25.63;11.70;;;8.90;85.30;;;;;;5099003;28;20016;-84
2022/03/30 02:18:05;;;;;;;23.77;11.40;;;8.90;85.30;;;;;;5089499;28;20034;-81
2022/03/30 02:20:31;;;;;;;25.98;11.57;;;8.80;85.50;;;;;;5088564;27;20080;-81
2022/03/30 02:22:57;;;;;;;27.23;11.32;;;8.80;85.50;;;;;;5096637;27;20024;-82
2022/03/30 02:25:23;;;;;;;23.90;11.00;;;8.80;85.50;;;;;;5088652;28;20059;-82
2022/03/30 02:27:48;;;;;;;26.15;11.70;;;8.80;85.60;;;;;;5071326;28;20028;-82
2022/03/30 02:30:14;;;;;;;27.52;11.40;;;8.70;85.80;;;;;;5072443;27;20032;-81
2022/03/30 02:32:42;;;;;;;31.50;10.90;;;8.70;85.90;;;;;;5100076;28;20035;-82
2022/03/30 02:35:08;;;;;;;27.75;11.18;;;8.70;86.00;;;;;;5109731;27;20031;-81
2022/03/30 02:37:34;;;;;;;31.40;12.25;;;8.60;86.00;;;;;;5098106;28;20019;-80
2022/03/30 02:40:00;;;;;;;20.45;9.98;;;8.60;86.10;;;;;;5070129;28;20036;-82
2022/03/30 02:42:26;;;;;;;25.17;11.48;;;8.60;86.40;;;;;;5073995;27;20023;-82
2022/03/30 02:44:51;;;;;;;26.35;10.93;;;8.60;86.50;;;;;;5080905;27;20474;-81
2022/03/30 02:48:17;;;;;;;26.38;12.20;;;8.50;86.60;;;;;;5110708;27;20023;-81
2022/03/30 02:50:05;;;;;;;20.73;11.40;;;8.50;86.80;;;;;;5103466;27;20046;-81
2022/03/30 02:52:31;;;;;;;22.10;11.13;;;8.50;86.90;;;;;;5102432;27;20127;-83
2022/03/30 02:54:56;;;;;;;22.00;10.90;;;8.40;87.00;;;;;;5094445;27;20440;-82
2022/03/30 02:57:24;;;;;;;26.17;11.73;;;8.40;87.40;;;;;;5106935;27;20102;-81
2022/03/30 02:59:49;;;;;;;34.85;12.27;;;8.40;87.40;;;;;;5103962;28;20566;-82
2022/03/30 03:02:15;;;;;;;29.05;11.85;;;8.30;87.50;;;;;;5098843;28;20027;-83
2022/03/30 03:04:41;;;;;;;28.52;11.68;;;8.30;87.60;;;;;;5095180;28;20456;-82
2022/03/30 03:07:07;;;;;;;24.27;13.20;;;8.30;87.70;;;;;;5115845;27;20098;-83
2022/03/30 03:09:33;;;;;;;24.88;11.52;;;8.20;87.90;;;;;;5086502;28;20397;-82
2022/03/30 03:11:59;;;;;;;25.50;11.70;;;8.20;88.00;;;;;;5094362;28;20047;-81
2022/03/30 03:14:24;;;;;;;29.88;13.13;;;8.20;88.20;;;;;;5092410;28;20118;-81
2022/03/30 03:16:50;;;;;;;32.80;13.02;;;8.20;88.40;;;;;;5085789;28;20035;-82
2022/03/30 03:19:15;;;;;;;26.25;12.23;;;8.10;88.60;;;;;;5123479;28;20074;-81
2022/03/30 03:21:42;;;;;;;27.42;12.45;;;8.10;88.90;;;;;;5103535;28;20042;-82
2022/03/30 03:24:08;;;;;;;24.17;11.50;;;8.10;89.00;;;;;;5097808;28;20506;-82
2022/03/30 03:26:34;;;;;;;25.52;12.15;;;8.10;89.00;;;;;;5107868;28;20020;-83
2022/03/30 03:29:00;;;;;;;22.38;11.65;;;8.00;89.00;;;;;;5103762;28;20039;-81
2022/03/30 03:31:26;;;;;;;22.95;11.73;;;8.00;89.20;;;;;;5088385;28;20027;-81
2022/03/30 03:33:52;;;;;;;27.13;12.63;;;8.00;89.70;;;;;;5093852;28;20026;-81
2022/03/30 03:36:21;;;;;;;23.10;12.13;;;8.00;89.90;;;;;;5098385;28;20365;-81
2022/03/30 03:38:46;;;;;;;24.05;12.43;;;7.90;89.80;;;;;;5107384;28;20027;-81
2022/03/30 03:41:12;;;;;;;27.33;13.57;;;7.90;89.90;;;;;;5128971;28;20029;-82
2022/03/30 03:43:38;;;;;;;28.90;12.23;;;7.90;90.10;;;;;;5084746;28;20023;-81
2022/03/30 03:46:04;;;;;;;24.02;11.68;;;7.90;90.10;;;;;;5089337;28;20483;-81
2022/03/30 03:48:30;;;;;;;23.77;12.27;;;7.80;90.10;;;;;;5089280;28;20108;-81
2022/03/30 03:50:56;;;;;;;28.75;12.02;;;7.80;90.20;;;;;;5094533;28;20155;-83
2022/03/30 03:53:21;;;;;;;29.23;11.95;;;7.80;90.20;;;;;;5101142;28;20117;-82
2022/03/30 03:55:47;;;;;;;26.48;13.23;;;7.80;90.20;;;;;;5091759;28;20031;-83
2022/03/30 03:58:13;;;;;;;25.35;11.65;;;7.80;90.30;;;;;;5060423;28;20118;-81
2022/03/30 04:00:39;;;;;;;23.25;12.27;;;7.70;90.30;;;;;;5077957;28;20140;-81
2022/03/30 04:03:04;;;;;;;28.25;12.20;;;7.70;90.40;;;;;;5095994;28;20439;-81
2022/03/30 04:05:31;;;;;;;29.90;12.27;;;7.70;90.50;;;;;;5077552;28;20399;-81
2022/03/30 04:07:56;;;;;;;26.90;12.05;;;7.70;90.50;;;;;;5093229;28;20019;-81
2022/03/30 04:10:22;;;;;;;25.45;12.30;;;7.60;90.50;;;;;;5064842;28;20035;-81
2022/03/30 04:12:48;;;;;;;28.75;13.82;;;7.60;90.50;;;;;;5107455;28;20031;-82
2022/03/30 04:15:13;;;;;;;24.40;11.80;;;7.60;90.80;;;;;;5077617;28;20031;-82
2022/03/30 04:17:47;;;;;;;29.23;12.82;;;7.60;90.80;;;;;;5079979;28;20035;-81
2022/03/30 04:20:13;;;;;;;33.15;14.15;;;7.60;90.90;;;;;;5107133;28;20031;-81
2022/03/30 04:22:40;;;;;;;27.85;12.48;;;7.50;91.00;;;;;;5082282;28;20028;-81
2022/03/30 04:25:06;;;;;;;22.00;11.70;;;7.50;91.00;;;;;;5106213;27;20027;-81
2022/03/30 04:27:32;;;;;;;26.65;13.95;;;7.50;91.10;;;;;;5088890;27;20027;-81
2022/03/30 04:29:58;;;;;;;28.92;13.52;;;7.50;91.20;;;;;;5103088;27;20116;-81
2022/03/30 04:32:24;;;;;;;30.83;13.23;;;7.40;91.20;;;;;;5108982;27;20023;-81
2022/03/30 04:34:49;;;;;;;27.23;14.05;;;7.40;91.30;;;;;;5089657;27;20031;-82
2022/03/30 04:37:15;;;;;;;29.50;13.52;;;7.40;91.30;;;;;;5104003;27;20445;-81
2022/03/30 04:39:41;;;;;;;22.50;11.95;;;7.30;91.30;;;;;;5104568;27;20031;-82
2022/03/30 04:42:07;;;;;;;27.42;13.18;;;7.30;91.40;;;;;;5114800;28;20483;-81
2022/03/30 04:44:32;;;;;;;33.83;13.15;;;7.30;91.50;;;;;;5089256;27;20050;-82
2022/03/30 04:46:59;;;;;;;29.13;13.85;;;7.30;91.40;;;;;;5103661;27;20027;-82
2022/03/30 04:49:24;;;;;;;31.70;14.88;;;7.20;91.40;;;;;;5103228;27;20478;-82
2022/03/30 04:51:50;;;;;;;33.03;14.13;;;7.20;91.50;;;;;;5092908;28;20087;-82
2022/03/30 04:54:17;;;;;;;25.90;13.57;;;7.20;91.50;;;;;;5084763;28;20047;-81
2022/03/30 04:56:44;;;;;;;37.58;14.00;;;7.20;91.60;;;;;;5104363;27;20030;-83
2022/03/30 04:59:10;;;;;;;28.27;13.80;;;7.20;91.80;;;;;;5122470;27;20024;-81
2022/03/30 05:01:37;;;;;;;29.40;13.98;;;7.10;91.80;;;;;;5080186;27;20495;-81
2022/03/30 05:04:04;;;;;;;26.10;13.48;;;7.10;92.00;;;;;;5115052;27;20428;-85
2022/03/30 05:06:30;;;;;;;31.30;13.50;;;7.10;92.00;;;;;;5099471;28;20023;-82
2022/03/30 05:08:56;;;;;;;29.40;13.65;;;7.10;92.10;;;;;;5119640;27;20046;-87
2022/03/30 05:11:21;;;;;;;29.02;13.45;;;7.10;92.10;;;;;;5096553;28;20028;-81
2022/03/30 05:13:48;;;;;;;25.05;13.15;;;7.00;92.00;;;;;;5105123;27;20055;-82
2022/03/30 05:16:14;;;;;;;28.95;13.18;;;7.00;92.00;;;;;;5082084;27;20032;-86
2022/03/30 05:18:40;;;;;;;26.92;12.82;;;6.90;92.00;;;;;;5077979;27;20460;-82
2022/03/30 05:21:06;;;;;;;34.17;13.93;;;6.90;92.20;;;;;;5113133;27;20035;-81
2022/03/30 05:23:36;;;;;;;28.10;12.88;;;6.80;92.10;;;;;;5109190;27;20076;-83
2022/03/30 05:26:03;;;;;;;24.45;13.48;;;6.80;92.20;;;;;;5098052;28;20024;-83
2022/03/30 05:28:28;;;;;;;26.52;12.73;;;6.80;91.90;;;;;;5129615;27;20049;-83
2022/03/30 05:30:54;;;;;;;31.77;13.50;;;6.70;92.10;;;;;;5121374;27;20028;-81
2022/03/30 05:33:20;;;;;;;26.90;12.35;;;6.70;91.90;;;;;;5082804;28;20024;-82
2022/03/30 05:35:48;;;;;;;29.83;12.98;;;6.70;92.00;;;;;;5091701;27;20078;-83
2022/03/30 05:38:15;;;;;;;29.38;12.50;;;6.60;92.10;;;;;;5120459;27;20080;-87
2022/03/30 05:40:40;;;;;;;29.13;14.02;;;6.60;92.20;;;;;;5120133;28;20035;-88
2022/03/30 05:43:06;;;;;;;28.95;13.05;;;6.60;92.30;;;;;;5087115;27;20004;-87
2022/03/30 05:45:32;;;;;;;26.60;12.85;;;6.50;92.40;;;;;;5145799;27;20017;-82
2022/03/30 05:47:57;;;;;;;27.33;12.50;;;6.50;92.50;;;;;;5110707;27;20011;-85
2022/03/30 05:50:23;;;;;;;29.35;14.02;;;6.50;92.60;;;;;;5110865;27;20043;-81
2022/03/30 05:52:49;;;;;;;28.08;13.80;;;6.50;92.90;;;;;;5100059;27;20024;-82
2022/03/30 05:55:15;;;;;;;25.52;12.73;;;6.50;93.10;;;;;;5096432;28;20031;-82
2022/03/30 05:57:41;;;;;;;30.55;13.90;;;6.50;93.30;;;;;;5090901;27;20471;-82
2022/03/30 06:00:08;;;;;;;29.20;13.90;;;6.50;93.60;;;;;;5098603;28;20105;-82
2022/03/30 06:02:34;;;;;;;30.98;14.52;;;6.50;93.60;;;;;;5107676;27;20034;-83
2022/03/30 06:05:00;;;;;;;28.52;14.48;;;6.60;93.70;;;;;;5096407;27;20035;-82
2022/03/30 06:07:26;;;;;;;31.30;14.73;;;6.50;93.80;;;;;;5101563;27;20035;-82
2022/03/30 06:09:51;;;;;;;30.35;14.20;;;6.50;94.00;;;;;;5087087;28;20144;-82
2022/03/30 06:12:17;;;;;;;30.52;15.18;;;6.50;94.10;;;;;;5108498;28;20034;-82
2022/03/30 06:14:43;;;;;;;26.80;13.85;;;6.60;94.30;;;;;;5078731;28;20120;-82
2022/03/30 06:17:10;;;;;;;38.30;14.48;;;6.50;94.30;;;;;;5096119;28;20056;-84
2022/03/30 06:19:37;;;;;;;27.08;15.07;;;6.50;94.40;;;;;;5091462;28;20476;-82
2022/03/30 06:22:05;;;;;;;31.15;13.13;;;6.60;94.50;;;;;;5084025;28;20030;-81
2022/03/30 06:24:31;;;;;;;29.92;13.65;;;6.60;94.70;;;;;;5110493;27;20074;-81
2022/03/30 06:26:57;;;;;;;29.80;14.00;;;6.60;94.70;;;;;;5090699;28;20056;-81
2022/03/30 06:29:23;;;;;;;43.60;14.35;;;6.60;94.80;;;;;;5107521;27;20102;-80
2022/03/30 06:31:49;;;;;;;32.25;13.95;;;6.70;94.80;;;;;;5101207;28;20462;-81
2022/03/30 06:34:14;;;;;;;28.83;13.07;;;6.70;94.90;;;;;;5099987;28;20028;-83
2022/03/30 06:36:40;;;;;;;26.02;12.77;;;6.70;94.90;;;;;;5118414;27;20027;-82
2022/03/30 06:39:06;;;;;;;28.33;12.55;;;6.70;94.90;;;;;;5083043;28;20042;-82
2022/03/30 06:41:32;;;;;;;28.52;13.07;;;6.70;94.80;;;;;;5086202;27;20031;-84
2022/03/30 06:43:58;;;;;;;26.98;13.65;;;6.80;94.90;;;;;;5113585;27;20138;-83
2022/03/30 06:46:23;;;;;;;23.58;12.52;;;6.80;94.90;;;;;;5080237;27;20141;-83
2022/03/30 06:48:49;;;;;;;20.58;11.35;;;6.80;94.80;;;;;;5124718;27;20047;-82
2022/03/30 06:51:15;;;;;;;34.17;13.02;;;6.90;94.90;;;;;;5102916;28;20411;-84
2022/03/30 06:53:41;;;;;;;23.40;10.32;;;6.90;94.90;;;;;;5107919;27;20541;-82
2022/03/30 06:56:08;;;;;;;24.77;10.73;;;6.90;94.90;;;;;;5115987;27;20019;-83
2022/03/30 06:58:34;;;;;;;26.65;10.50;;;6.90;94.90;;;;;;5098396;28;20464;-83
2022/03/30 07:01:00;;;;;;;19.58;9.98;;;7.00;94.90;;;;;;5098496;28;20515;-81
2022/03/30 07:03:27;;;;;;;18.73;9.57;;;7.00;94.90;;;;;;5081511;27;20054;-82
2022/03/30 07:05:54;;;;;;;18.48;10.18;;;7.00;94.90;;;;;;5102350;28;20072;-82
2022/03/30 07:11:04;;;;;;;23.92;10.98;;;7.10;94.90;;;;;;5084316;28;20376;-82
2022/03/30 07:13:29;;;;;;;34.13;11.85;;;7.10;94.90;;;;;;5101771;28;20031;-82
2022/03/30 07:15:55;;;;;;;20.67;9.52;;;7.30;94.90;;;;;;5079488;28;20038;-82
2022/03/30 07:18:21;;;;;;;21.60;10.32;;;7.20;94.90;;;;;;5079209;28;20437;-82
2022/03/30 07:20:46;;;;;;;23.60;11.32;;;7.30;94.90;;;;;;5095621;28;20032;-81
2022/03/30 07:23:14;;;;;;;23.98;10.90;;;7.30;94.90;;;;;;5095937;28;20023;-81
2022/03/30 07:25:40;;;;;;;22.35;11.00;;;7.40;94.90;;;;;;5078618;28;20062;-81
2022/03/30 07:28:06;;;;;;;19.88;9.98;;;7.40;94.90;;;;;;5095475;28;20115;-81
2022/03/30 07:30:33;;;;;;;17.15;10.35;;;7.40;94.90;;;;;;5094379;28;20122;-82
2022/03/30 07:33:00;;;;;;;20.90;10.25;;;7.50;94.90;;;;;;5095771;28;20054;-82
2022/03/30 07:35:32;;;;;;;23.80;11.55;;;7.50;95.00;;;;;;5105179;28;20023;-83
2022/03/30 07:37:58;;;;;;;23.60;10.10;;;7.60;95.00;;;;;;5109464;28;20022;-81
2022/03/30 07:40:25;;;;;;;20.10;9.80;;;7.60;94.90;;;;;;5126327;28;20027;-81
2022/03/30 07:42:51;;;;;;;21.05;9.90;;;7.70;94.90;;;;;;5096772;28;20360;-82
2022/03/30 07:45:18;;;;;;;19.42;9.13;;;7.70;94.80;;;;;;5115605;28;20060;-86
2022/03/30 07:47:44;;;;;;;22.90;10.13;;;7.80;94.80;;;;;;5098366;28;20399;-83
2022/03/30 07:50:11;;;;;;;20.10;9.20;;;7.80;94.70;;;;;;5089010;28;20035;-82
2022/03/30 07:52:38;;;;;;;17.55;9.32;;;7.90;94.60;;;;;;5103252;28;20043;-82
2022/03/30 07:55:06;;;;;;;18.33;10.13;;;7.90;94.50;;;;;;5104181;28;20031;-81
2022/03/30 07:57:31;;;;;;;20.60;10.13;;;8.00;94.50;;;;;;5111714;28;20055;-82
2022/03/30 07:59:59;;;;;;;17.95;9.57;;;8.00;94.40;;;;;;5115463;28;20023;-82
2022/03/30 08:02:25;;;;;;;21.27;9.80;;;8.10;94.50;;;;;;5112774;28;20429;-82
2022/03/30 08:04:52;;;;;;;16.67;9.85;;;8.20;94.50;;;;;;5116644;28;20110;-82
2022/03/30 08:07:21;;;;;;;15.95;10.02;;;8.20;94.40;;;;;;5111019;28;20083;-83
2022/03/30 08:09:47;;;;;;;19.27;10.18;;;8.30;94.50;;;;;;5112600;28;20498;-81
2022/03/30 08:12:19;;;;;;;21.52;10.60;;;8.40;94.40;;;;;;5095659;28;20028;-81
2022/03/30 08:14:45;;;;;;;20.73;10.50;;;8.40;94.50;;;;;;5095088;28;20085;-81
2022/03/30 08:17:11;;;;;;;21.77;11.93;;;8.50;94.90;;;;;;5095184;28;20028;-82
2022/03/30 08:19:37;;;;;;;21.33;10.30;;;8.60;94.70;;;;;;5094966;28;20123;-83
2022/03/30 08:24:48;;;;;;;19.73;11.15;;;8.70;94.80;;;;;;5109596;28;20082;-82
2022/03/30 08:27:19;;;;;;;26.08;11.27;;;8.80;94.80;;;;;;5112032;28;20052;-81
2022/03/30 08:29:45;;;;;;;22.83;11.43;;;8.80;94.80;;;;;;5094799;28;20063;-83
2022/03/30 08:32:16;;;;;;;23.90;11.30;;;8.80;94.80;;;;;;5095871;28;20026;-83
2022/03/30 08:34:43;;;;;;;21.35;10.65;;;8.90;94.90;;;;;;5094489;28;20051;-81
2022/03/30 08:37:09;;;;;;;25.63;11.32;;;9.00;94.90;;;;;;5094933;28;20417;-81
2022/03/30 08:39:35;;;;;;;23.00;10.27;;;9.10;94.90;;;;;;5094879;28;20115;-83
2022/03/30 08:42:05;;;;;;;22.42;11.10;;;9.10;95.00;;;;;;5098240;28;20049;-81
2022/03/30 08:44:33;;;;;;;20.75;9.57;;;9.20;94.80;;;;;;5115818;28;20015;-84
2022/03/30 08:46:59;;;;;;;25.10;10.48;;;9.30;94.80;;;;;;5097832;28;20043;-81
2022/03/30 08:49:27;;;;;;;23.33;9.68;;;9.40;94.60;;;;;;5116324;28;20019;-81
2022/03/30 08:51:54;;;;;;;19.45;10.50;;;9.50;94.60;;;;;;5101540;28;20621;-81
2022/03/30 08:54:20;;;;;;;16.90;9.60;;;9.60;94.40;;;;;;5094544;28;20368;-81
2022/03/30 08:56:47;;;;;;;18.63;10.13;;;9.70;94.40;;;;;;5094438;28;20016;-81
2022/03/30 08:59:17;;;;;;;19.58;10.20;;;9.80;93.90;;;;;;5094541;28;20480;-81
2022/03/30 09:01:44;;;;;;;13.10;8.25;;;9.80;93.70;;;;;;5095611;28;20059;-81
2022/03/30 09:04:12;;;;;;;14.45;8.50;;;9.90;93.60;;;;;;5077806;28;20530;-81
2022/03/30 09:06:41;;;;;;;14.52;7.68;;;10.00;93.40;;;;;;5081580;28;20032;-82
2022/03/30 09:09:08;;;;;;;14.02;7.47;;;10.10;93.20;;;;;;5093309;28;20024;-82
2022/03/30 09:11:44;;;;;;;14.93;7.68;;;10.10;92.90;;;;;;5089053;28;20020;-82
2022/03/30 09:14:11;;;;;;;16.48;8.18;;;10.10;92.80;;;;;;5091006;28;20493;-82
2022/03/30 09:16:45;;;;;;;14.82;7.78;;;10.20;92.60;;;;;;5064233;28;20019;-82
2022/03/30 09:19:13;;;;;;;16.77;8.43;;;10.20;92.40;;;;;;5090921;28;20111;-81
2022/03/30 09:21:40;;;;;;;14.70;9.05;;;10.30;92.20;;;;;;5092704;28;20032;-82
2022/03/30 09:24:06;;;;;;;12.00;7.35;;;10.30;92.10;;;;;;5085087;28;20034;-83
2022/03/30 09:26:33;;;;;;;16.60;8.13;;;10.40;92.00;;;;;;5085000;28;20429;-82
2022/03/30 09:28:59;;;;;;;14.93;8.43;;;10.50;91.90;;;;;;5091024;28;20016;-81
2022/03/30 09:31:26;;;;;;;16.73;8.93;;;10.60;91.70;;;;;;5068760;28;20031;-81
2022/03/30 09:33:53;;;;;;;17.88;9.02;;;10.70;91.70;;;;;;5092331;28;20031;-87
2022/03/30 09:36:30;;;;;;;18.33;9.18;;;10.70;91.50;;;;;;5100726;28;20061;-82
2022/03/30 09:38:56;;;;;;;17.35;9.63;;;10.80;91.40;;;;;;5094458;28;20016;-83
2022/03/30 09:41:21;;;;;;;17.55;8.88;;;10.90;91.20;;;;;;5093392;28;20454;-81
2022/03/30 09:43:47;;;;;;;14.25;9.32;;;10.90;91.20;;;;;;5076306;28;20116;-82
2022/03/30 09:46:15;;;;;;;17.80;9.13;;;11.00;91.10;;;;;;5056497;28;20028;-81
2022/03/30 09:48:52;;;;;;;19.17;8.68;;;11.10;90.90;;;;;;5078059;28;20020;-81
2022/03/30 09:51:21;;;;;;;15.70;8.18;;;11.10;90.70;;;;;;5099614;28;20110;-82
2022/03/30 09:53:48;;;;;;;17.17;8.70;;;11.20;90.90;;;;;;5112044;28;20117;-82
2022/03/30 09:56:25;;;;;;;15.73;8.48;;;11.30;90.30;;;;;;5090548;28;20031;-83
2022/03/30 09:59:00;;;;;;;13.18;8.45;;;11.30;90.50;;;;;;5112333;28;20035;-81
2022/03/30 10:01:29;;;;;;;17.20;8.82;;;11.40;90.10;;;;;;5111807;28;20107;-82
2022/03/30 10:03:55;;;;;;;18.33;8.82;;;11.50;89.40;;;;;;5092010;28;20099;-82
2022/03/30 10:06:30;;;;;;;17.67;9.13;;;11.50;88.70;;;;;;5109200;28;20028;-81
2022/03/30 10:08:57;;;;;;;16.45;8.45;;;11.60;88.60;;;;;;5094045;28;20020;-81
2022/03/30 10:11:27;;;;;;;14.73;7.93;;;11.70;88.30;;;;;;5093751;28;20025;-80
2022/03/30 10:14:00;;;;;;;13.15;7.00;;;11.70;88.10;;;;;;5093249;28;20539;-81
2022/03/30 10:16:27;;;;;;;15.10;7.13;;;11.80;86.40;;;;;;5093307;28;20483;-81
2022/03/30 10:18:53;;;;;;;13.07;6.35;;;11.90;86.00;;;;;;5075951;28;20028;-81
2022/03/30 10:21:32;;;;;;;11.65;6.85;;;11.90;85.70;;;;;;5076604;28;20028;-83
2022/03/30 10:24:07;;;;;;;13.07;7.25;;;12.00;85.00;;;;;;5093933;28;20077;-83
2022/03/30 10:26:51;;;;;;;9.88;5.95;;;12.10;85.00;;;;;;5094681;28;20052;-83
2022/03/30 10:29:21;;;;;;;11.27;6.53;;;12.10;84.50;;;;;;5094126;28;20119;-83
2022/03/30 10:32:13;;;;;;;8.18;5.18;;;12.20;83.20;;;;;;5094985;28;20079;-82
2022/03/30 10:34:59;;;;;;;8.57;5.43;;;12.30;83.60;;;;;;5095132;28;20419;-83
2022/03/30 10:37:26;;;;;;;9.13;5.00;;;12.40;83.70;;;;;;5079858;28;20035;-82
2022/03/30 10:40:03;;;;;;;8.63;5.70;;;12.50;84.20;;;;;;5093548;28;20480;-82
2022/03/30 10:42:46;;;;;;;12.07;5.43;;;12.60;82.80;;;;;;5093963;28;20035;-84
2022/03/30 10:45:17;;;;;;;13.35;6.30;;;12.70;82.10;;;;;;5095311;28;20047;-83
2022/03/30 10:48:21;;;;;;;13.73;5.75;;;12.80;81.30;;;;;;5093241;28;20456;-83
2022/03/30 10:50:51;;;;;;;12.80;5.68;;;12.90;80.10;;;;;;5093423;28;20051;-82
2022/03/30 10:53:33;;;;;;;10.50;5.55;;;12.90;79.80;;;;;;5093739;28;20017;-83
2022/03/30 10:56:14;;;;;;;10.00;5.78;;;13.00;79.30;;;;;;5093401;28;20032;-84
2022/03/30 10:59:00;;;;;;;14.90;6.20;;;13.00;78.90;;;;;;5094600;28;20052;-83
2022/03/30 11:01:33;;;;;;;10.45;5.53;;;13.10;78.50;;;;;;5094669;28;20044;-83
2022/03/30 11:04:13;;;;;;;9.55;5.85;;;13.10;78.50;;;;;;5097946;28;20460;-80
2022/03/30 11:06:42;;;;;;;11.52;6.60;;;13.20;78.90;;;;;;5094000;28;20020;-81
2022/03/30 11:09:08;;;;;;;12.10;6.22;;;13.30;78.90;;;;;;5098683;28;20036;-81
2022/03/30 11:11:43;;;;;;;10.18;5.97;;;13.50;78.90;;;;;;5099756;28;20024;-87
2022/03/30 11:14:28;;;;;;;18.75;6.47;;;13.60;78.20;;;;;;5102416;28;20031;-81
2022/03/30 11:16:55;;;;;;;11.85;6.10;;;13.70;77.30;;;;;;5126678;28;20390;-81
2022/03/30 11:19:28;;;;;;;13.40;6.50;;;13.80;76.80;;;;;;5133356;28;20035;-80
2022/03/30 11:22:02;;;;;;;12.43;6.53;;;13.90;75.90;;;;;;5135073;28;20032;-81
2022/03/30 11:24:30;;;;;;;10.90;6.75;;;14.00;75.50;;;;;;5135023;28;20020;-80
2022/03/30 11:26:59;;;;;;;13.27;6.35;;;14.10;75.00;;;;;;5134681;28;20019;-81
2022/03/30 11:29:50;;;;;;;13.35;6.45;;;14.10;74.70;;;;;;5131881;28;20033;-82
2022/03/30 11:32:18;;;;;;;13.02;6.25;;;14.10;74.90;;;;;;5118272;28;20041;-79
2022/03/30 11:34:49;;;;;;;10.80;6.40;;;14.20;75.20;;;;;;5119674;28;20019;-90
2022/03/30 11:37:16;;;;;;;12.63;5.95;;;14.20;75.20;;;;;;5119494;28;20083;-79
2022/03/30 11:39:42;;;;;;;11.50;5.65;;;14.20;74.50;;;;;;5094081;28;20028;-84
2022/03/30 11:42:08;;;;;;;9.93;5.90;;;14.30;74.40;;;;;;5086551;28;20024;-83
2022/03/30 11:47:24;;;;;;;9.50;5.25;;;14.40;73.50;;;;;;5102619;28;20529;-84
2022/03/30 11:49:56;;;;;;;7.53;4.97;;;14.40;73.10;;;;;;5100843;28;20024;-83
2022/03/30 11:52:22;;;;;;;;;;;14.40;73.20;;;;;;5084432;28;20050;-84
2022/03/30 11:54:52;;;;;;;8.07;4.80;;;14.50;73.00;;;;;;5085049;28;20260;-85
2022/03/30 11:57:19;;;;;;;8.75;5.10;;;14.60;72.70;;;;;;5084823;28;20032;-85
2022/03/30 12:00:02;;;;;;;7.75;4.40;;;14.60;72.40;;;;;;5101641;28;20032;-86
2022/03/30 12:02:29;;;;;;;8.52;5.20;;;14.60;72.30;;;;;;5109769;28;20028;-87
2022/03/30 12:04:56;;;;;;;9.25;4.95;;;14.70;71.70;;;;;;5127617;28;20020;-86
2022/03/30 12:07:22;;;;;;;9.38;5.03;;;14.70;71.40;;;;;;5132201;27;20028;-80
2022/03/30 12:09:51;;;;;;;7.35;4.40;;;14.80;71.10;;;;;;5136377;28;20023;-82
2022/03/30 12:12:36;;;;;;;8.00;5.15;;;14.90;71.10;;;;;;5136416;28;20027;-83
2022/03/30 12:15:05;;;;;;;7.65;5.05;;;14.90;70.90;;;;;;5124099;28;20019;-81
2022/03/30 12:17:31;;;;;;;7.20;4.53;;;15.00;70.10;;;;;;5140845;28;20038;-80
2022/03/30 12:19:57;;;;;;;9.95;5.18;;;15.00;69.80;;;;;;5139892;28;20095;-83
2022/03/30 12:22:23;;;;;;;7.82;4.68;;;15.00;69.40;;;;;;5126927;28;20028;-81
2022/03/30 12:24:49;;;;;;;8.52;4.90;;;15.00;68.90;;;;;;5119134;28;20030;-80
2022/03/30 12:27:15;;;;;;;9.32;4.57;;;15.10;68.90;;;;;;5126699;28;20096;-80
2022/03/30 12:29:42;;;;;;;8.35;4.60;;;15.20;69.10;;;;;;5118363;28;20183;-84
2022/03/30 12:32:13;;;;;;;10.63;5.15;;;15.20;67.90;;;;;;5116423;28;20059;-81
2022/03/30 12:34:40;;;;;;;7.13;4.50;;;15.40;68.00;;;;;;5117256;28;20016;-82
2022/03/30 12:37:09;;;;;;;10.07;4.95;;;15.40;67.80;;;;;;5117451;28;20110;-86
2022/03/30 12:39:41;;;;;;;6.88;4.25;;;15.60;67.70;;;;;;5123588;28;20050;-84
2022/03/30 12:42:09;;;;;;;12.65;5.60;;;15.70;67.30;;;;;;5117560;28;20027;-81
2022/03/30 12:44:41;;;;;;;6.93;4.05;;;15.70;66.00;;;;;;5116685;28;20028;-85
2022/03/30 12:47:55;;;;;;;7.53;4.80;;;15.70;65.20;;;;;;5115759;28;20068;-81
2022/03/30 12:50:33;;;;;;;8.73;4.65;;;15.80;64.90;;;;;;5116650;28;20024;-81
2022/03/30 12:53:18;;;;;;;8.70;4.22;;;15.70;64.90;;;;;;5117828;27;20058;-81